Weather reports worldwide

Advertisment
Mont Aigoual, France (7560): temperature & dewpoint: 19.08.2019 07:00:00 - 25.08.2019 07:00:00 (CEST)Mont Aigoual, France (7560): wind speed & gusts: 19.08.2019 07:00:00 - 25.08.2019 07:00:00 (CEST)Mont Aigoual, France (7560): wind direction: 19.08.2019 07:00:00 - 25.08.2019 07:00:00 (CEST)Mont Aigoual, France (7560): visibility: 19.08.2019 07:00:00 - 25.08.2019 07:00:00 (CEST)Mont Aigoual, France (7560): precipitation: 19.08.2019 07:00:00 - 25.08.2019 07:00:00 (CEST)
Date & Time tt [°C] td [°C] ff [km/h] ff [kn] fx [km/h] fx [kn] dd vv [km] rr [mm]
25.08.2019 07:00:00 16,2 6,3 17 9 22 12 NW 20 0,0
25.08.2019 06:00:00 16,4 6,2 19 10 23 13 NW 20 0,0
25.08.2019 05:00:00 16,4 7,1 18 10 21 11 NW 20 0,0
25.08.2019 04:00:00 16,5 6,9 15 8 24 13 NNW 20 0,0
25.08.2019 03:00:00 16,3 8,5 20 11 29 16 NW 20 0,0
25.08.2019 02:00:00 16,4 8,6 26 14 33 18 NW 20 0,0
25.08.2019 01:00:00 16,8 9,2 27 15 33 18 NNW 20 0,0
25.08.2019 00:00:00 16,6 9,0 28 15 31 17 NW 20 0,0
24.08.2019 23:00:00 17,0 9,2 29 16 33 18 NNW 20 0,0
24.08.2019 22:00:00 17,1 9,5 21 12 32 17 NW 20 0,0
24.08.2019 21:00:00 18,1 9,2 21 11 32 17 W 20 0,0
24.08.2019 20:00:00 18,8 10,4 20 11 37 20 SSW 20 0,0
24.08.2019 19:00:00 20,0 11,0 22 12 38 20 S 20 0,0
24.08.2019 18:00:00 21,0 10,5 26 14 39 21 S 20 0,0
24.08.2019 17:00:00 20,9 9,2 22 12 40 22 S 20 0,0
24.08.2019 16:00:00 21,5 9,7 22 12 37 20 S 20 0,0
24.08.2019 15:00:00 21,2 10,4 20 11 36 20 S 20 0,0
24.08.2019 14:00:00 20,9 11,0 19 11 37 20 S 20 0,0
24.08.2019 13:00:00 20,1 10,5 16 9 32 18 S 20 0,0
24.08.2019 12:00:00 19,3 10,6 14 7 29 15 S 20 0,0
24.08.2019 11:00:00 18,5 8,7 11 6 20 11 S 20 0,0
24.08.2019 10:00:00 18,2 7,3 10 5 15 8 S 20 0,0
24.08.2019 09:00:00 17,0 7,6 9 5 15 8 SSW 20 0,0
24.08.2019 08:00:00 15,8 7,3 6 4 18 10 S 20 0,0
24.08.2019 07:00:00 15,5 7,3 13 7 23 12 S 20 0,0
24.08.2019 06:00:00 15,5 7,5 18 10 23 13 S 20 0,0
24.08.2019 05:00:00 15,5 8,0 18 10 23 13 S 20 0,0
24.08.2019 04:00:00 15,1 8,3 18 10 23 12 S 20 0,0
24.08.2019 03:00:00 15,1 9,2 19 10 24 13 SSE 20 0,0
24.08.2019 02:00:00 14,8 9,4 18 10 23 13 SSE 20 0,0
24.08.2019 01:00:00 14,2 10,4 17 9 27 14 E 20 0,0
24.08.2019 00:00:00 15,1 10,5 15 8 21 11 E 20 0,0
23.08.2019 23:00:00 17,4 8,5 10 5 12 7 SSE 20 0,0
23.08.2019 22:00:00 18,0 7,4 6 4 14 8 S 20 0,0
23.08.2019 21:00:00 18,0 8,3 8 4 28 15 S 20 0,0
23.08.2019 20:00:00 19,1 8,7 19 11 33 18 SE 20 0,0
23.08.2019 19:00:00 21,2 4,7 21 11 32 17 S 20 0,0
23.08.2019 18:00:00 22,1 4,6 18 10 32 17 S 20 0,0
23.08.2019 17:00:00 22,5 3,6 18 10 38 20 S 20 0,0
23.08.2019 16:00:00 22,1 3,2 21 11 36 20 S 20 0,0
23.08.2019 15:00:00 21,8 3,4 17 9 34 18 S 20 0,0
23.08.2019 14:00:00 21,1 3,8 15 8 31 17 S 20 0,0
23.08.2019 13:00:00 20,8 5,2 6 4 21 12 S 20 0,0
23.08.2019 12:00:00 20,1 -2,9 9 5 21 11 ENE 20 0,0
23.08.2019 11:00:00 19,1 0,6 9 5 22 12 NE 20 0,0
23.08.2019 10:00:00 18,4 -5,0 14 8 26 14 NE 20 0,0
23.08.2019 09:00:00 17,0 -2,7 16 9 26 14 NNE 20 0,0
23.08.2019 08:00:00 16,1 -0,6 22 12 26 14 N 20 0,0
23.08.2019 07:00:00 15,7 -5,4 16 9 23 12 NE 20 0,0
23.08.2019 06:00:00 15,8 0,4 18 10 26 14 ENE 20 0,0
23.08.2019 05:00:00 15,1 5,0 16 9 28 15 ENE 20 0,0
23.08.2019 04:00:00 15,1 3,2 19 10 32 17 NE 20 0,0
23.08.2019 03:00:00 15,4 -8,1 29 16 44 24 N 20 0,0
23.08.2019 02:00:00 15,3 8,5 36 19 47 25 NNW 20 0,0
23.08.2019 01:00:00 14,0 10,2 24 13 26 14 NW 20 0,0
23.08.2019 00:00:00 14,9 10,3 7 4 21 11 WSW 20 0,0
22.08.2019 23:00:00 14,8 10,4 19 10 27 14 SSE 20 0,0
22.08.2019 22:00:00 15,4 10,4 16 9 31 17 SE 20 0,0
22.08.2019 21:00:00 17,1 9,8 15 8 26 14 SSE 20 0,0
22.08.2019 20:00:00 18,3 8,8 10 6 23 12 SSE 20 0,0
22.08.2019 19:00:00 19,5 8,2 9 5 28 15 S 20 0,0
22.08.2019 18:00:00 19,6 7,7 18 10 35 19 SSE 20 0,0
22.08.2019 17:00:00 19,8 8,2 17 9 31 17 E 20 0,0
22.08.2019 16:00:00 18,8 7,6 11 6 27 15 E 20 0,0
22.08.2019 15:00:00 18,1 10,2 9 5 23 12 SE 20 0,0
22.08.2019 14:00:00 17,8 10,2 14 7 33 18 ENE 20 0,0
22.08.2019 13:00:00 19,0 10,3 12 6 30 16 SSE 19 0,0
22.08.2019 12:00:00 18,2 9,5 7 4 22 12 S 20 0,0
22.08.2019 11:00:00 17,1 9,8 8 4 22 12 S 20 0,0
22.08.2019 10:00:00 15,7 10,0 14 8 26 14 SSE 20 0,0
22.08.2019 09:00:00 14,4 8,1 16 9 23 12 ESE 20 0,0
22.08.2019 08:00:00 13,4 6,7 12 6 16 9 E 20 0,0
22.08.2019 07:00:00 13,9 1,2 5 3 9 5 NE 20 0,0
22.08.2019 06:00:00 14,7 -2,7 8 4 13 7 N 20 0,0
22.08.2019 05:00:00 14,4 0,6 11 6 16 9 NNW 20 0,0
22.08.2019 04:00:00 13,9 3,1 11 6 22 12 NNW 20 0,0
22.08.2019 03:00:00 13,7 2,0 14 8 26 14 NW 20 0,0
22.08.2019 02:00:00 13,6 3,4 21 11 25 13 NW 20 0,0
22.08.2019 01:00:00 13,3 4,2 16 9 21 11 NW 20 0,0
22.08.2019 00:00:00 13,7 5,1 6 4 12 6 W 20 0,0
21.08.2019 23:00:00 14,0 5,9 4 2 10 5 W 20 0,0
21.08.2019 22:00:00 14,6 6,4 5 3 13 7 SSW 20 0,0
21.08.2019 21:00:00 15,3 6,0 8 4 18 10 S 20 0,0
21.08.2019 20:00:00 16,0 6,1 14 7 19 10 NNW 20 0,0
21.08.2019 19:00:00 18,4 6,9 3 1 21 12 SSW 20 0,0
21.08.2019 18:00:00 19,0 7,4 12 6 19 10 S 20 0,0
21.08.2019 17:00:00 18,4 6,6 5 3 18 10 NE 20 0,0
21.08.2019 16:00:00 18,0 4,9 6 4 15 8 NNE 20 0,0
21.08.2019 15:00:00 17,3 3,9 7 4 22 12 N 20 0,0
21.08.2019 14:00:00 17,4 2,9 9 5 23 12 NE 20 0,0
21.08.2019 13:00:00 16,7 1,5 10 5 28 15 NE 20 0,0
21.08.2019 12:00:00 15,4 0,8 15 8 36 19 NNE 20 0,0
21.08.2019 11:00:00 14,3 1,2 21 11 41 22 N 20 0,0
21.08.2019 10:00:00 13,9 -1,3 27 15 39 21 N 20 0,0
21.08.2019 09:00:00 13,7 -3,6 27 15 44 24 N 20 0,0
21.08.2019 08:00:00 11,8 -4,0 30 16 41 22 N 20 0,0
21.08.2019 07:00:00 10,3 -3,8 37 20 46 25 N 20 0,0
21.08.2019 06:00:00 10,5 -4,3 40 22 52 28 N 20 0,0
21.08.2019 05:00:00 9,9 -3,1 39 21 53 29 N 20 0,0
21.08.2019 04:00:00 9,7 -2,3 44 24 62 34 N 20 0,0
21.08.2019 03:00:00 9,2 -1,5 49 27 65 35 N 20 0,0
21.08.2019 02:00:00 8,4 1,3 51 28 68 37 N 20 0,0
21.08.2019 01:00:00 7,9 3,4 56 30 72 39 N 20 0,0
21.08.2019 00:00:00 6,7 6,1 55 30 82 44 N 20 0,0
20.08.2019 23:00:00 6,7 6,3 61 33 96 52 N 20 0,0
20.08.2019 22:00:00 6,9 6,3 68 37 94 51 N 20 0,0
20.08.2019 21:00:00 7,5 7,1 54 29 78 42 N 20 0,0
20.08.2019 20:00:00 8,3 7,7 56 30 73 39 N 20 0,0
20.08.2019 19:00:00 9,3 8,2 37 20 53 28 N 20 0,0
20.08.2019 18:00:00 9,1 9,1 46 25 66 35 N 20 0,0
20.08.2019 17:00:00 8,9 8,9 52 28 66 35 N 1,5 0,0
20.08.2019 16:00:00 8,4 8,4 38 21 59 32 NNW 0,1 0,2
20.08.2019 15:00:00 8,9 8,9 18 10 52 28 N 0,2 0,2
20.08.2019 14:00:00 9,0 9,0 40 21 54 29 NNW 0,3 0,8
20.08.2019 13:00:00 9,5 9,5 34 19 49 26 NW 0,1 0,4
20.08.2019 12:00:00 9,3 9,3 37 20 50 27 NW 0,1 0,8
20.08.2019 11:00:00 9,6 9,6 31 17 45 25 NW 0,1 0,2
20.08.2019 10:00:00 9,6 9,6 37 20 46 25 NW 0,2 0,6
20.08.2019 09:00:00 9,8 9,2 35 19 54 29 NNW 20 0,2
20.08.2019 08:00:00 10,1 10,1 43 23 49 26 NNW 0,5 1,5
20.08.2019 07:00:00 10,5 9,7 36 19 41 22 NNW 20 1,4
20.08.2019 06:00:00 11,1 9,5 15 8 30 16 NW 14 1,8
20.08.2019 05:00:00 11,3 10,0 23 12 33 18 WNW 17 1,4
20.08.2019 04:00:00 12,5 12,5 16 8 37 20 SW 0,1 1,4
20.08.2019 03:00:00 12,8 12,8 19 10 42 23 SSW 0,1 0,4
20.08.2019 02:00:00 13,3 13,3 29 16 38 20 SSW 0,8 0,2
20.08.2019 01:00:00 12,9 12,9 16 8 29 16 SW - 0,0
20.08.2019 00:00:00 13,3 13,3 14 7 31 17 S 0,1 0,0
19.08.2019 23:00:00 13,0 13,0 12 6 62 33 S 0,2 1,2
19.08.2019 22:00:00 13,8 13,8 5 3 19 11 SSE 0,2 0,0
19.08.2019 21:00:00 13,5 13,5 9 5 16 8 ESE 1,1 0,0
19.08.2019 20:00:00 13,3 13,3 6 3 19 10 SSW 0,2 0,0
19.08.2019 19:00:00 14,1 14,1 6 4 17 9 S 2,0 0,0
19.08.2019 18:00:00 13,3 13,3 12 6 23 12 W 0,1 0,0
19.08.2019 17:00:00 13,7 13,7 13 7 23 12 W 0,1 0,0
19.08.2019 16:00:00 15,2 15,2 15 8 28 15 S 0,1 0,0
19.08.2019 15:00:00 15,2 15,2 13 7 23 13 S 0,1 0,0
19.08.2019 14:00:00 15,0 15,0 12 7 20 11 S 0,1 0,0
19.08.2019 13:00:00 14,6 14,6 6 3 18 10 S 0,1 0,0
19.08.2019 12:00:00 14,7 14,7 6 4 12 6 S 0,1 0,0
19.08.2019 11:00:00 14,2 14,2 4 2 11 6 NE 0,1 0,0
19.08.2019 10:00:00 14,0 14,0 7 4 18 10 SE 0,1 0,2
19.08.2019 09:00:00 13,3 13,3 11 6 23 12 W 0,1 0,0
19.08.2019 08:00:00 14,0 14,0 9 5 24 13 WSW 0,1 0,2
19.08.2019 07:00:00 14,1 14,1 13 7 29 16 SW 0,1 0,2

tt = temperature
td = dewpoint
ff = wind speed
fx = gusts
dd = wind direction
vv = visibility
rr = precipitation

Next stations